Time;durP1;ratioP1;P1;durP2;ratioP2;P2;SDS_P1;SDS_P2;PMS_P1;PMS_P2;Temp;Humidity;BMP_temperature;BMP_pressure;BME280_temperature;BME280_humidity;BME280_pressure;Samples;Min_cycle;Max_cycle;Signal;HPM_P1;HPM_P2
2022/05/02 00:00:28;;;;;;;9.93;8.50;;;13.40;68.20;;;-142.21;100.00;112049.66;5054418;28;20580;-78
2022/05/02 00:02:55;;;;;;;9.47;8.47;;;13.60;68.00;;;-142.21;100.00;112049.66;5053848;28;20531;-77
2022/05/02 00:05:22;;;;;;;9.23;7.97;;;13.40;67.60;;;-142.21;100.00;112049.66;5054285;28;20446;-77
2022/05/02 00:07:50;;;;;;;10.03;8.57;;;13.40;67.60;;;-142.21;100.00;112049.66;5054415;28;20476;-77
2022/05/02 00:10:18;;;;;;;9.33;8.40;;;13.40;67.70;;;-142.21;100.00;112049.66;5053388;28;20480;-76
2022/05/02 00:12:46;;;;;;;9.80;8.30;;;13.30;68.10;;;-142.21;100.00;112049.66;5054128;28;20623;-77
2022/05/02 00:15:13;;;;;;;10.67;8.80;;;13.30;68.40;;;-142.21;100.00;112049.66;5053512;28;20444;-76
2022/05/02 00:17:58;;;;;;;11.60;8.37;;;13.20;69.60;;;-142.21;100.00;112049.66;5053014;28;20546;-77
2022/05/02 00:20:27;;;;;;;10.30;7.80;;;13.30;68.90;;;-142.21;100.00;112049.66;5053404;28;20527;-76
2022/05/02 00:22:56;;;;;;;13.83;9.27;;;13.10;68.10;;;-142.21;100.00;112049.66;5053878;28;20544;-75
2022/05/02 00:25:23;;;;;;;10.70;9.50;;;13.00;68.70;;;-142.21;100.00;112049.66;5032992;28;20453;-76
2022/05/02 00:27:50;;;;;;;11.33;8.00;;;13.10;68.40;;;-142.21;100.00;112049.66;5041731;28;20450;-77
2022/05/02 00:30:18;;;;;;;13.10;8.73;;;13.00;68.90;;;-142.21;100.00;112049.66;5053065;28;20500;-77
2022/05/02 00:32:47;;;;;;;10.53;8.90;;;13.00;69.30;;;-142.21;100.00;112049.66;5053446;28;20448;-77
2022/05/02 00:35:15;;;;;;;10.63;9.07;;;12.90;69.50;;;-142.21;100.00;112049.66;5054056;28;20476;-77
2022/05/02 00:37:44;;;;;;;10.70;8.40;;;13.00;68.40;;;-142.21;100.00;112049.66;5053583;28;20531;-76
2022/05/02 00:40:14;;;;;;;10.57;8.63;;;13.00;67.90;;;-142.21;100.00;112049.66;5053268;28;20933;-77
2022/05/02 00:42:43;;;;;;;9.60;8.60;;;13.00;67.90;;;-142.21;100.00;112049.66;5053503;28;20500;-77
2022/05/02 00:45:13;;;;;;;10.57;9.13;;;13.10;68.10;;;-142.21;100.00;112049.66;5052683;28;20448;-78
2022/05/02 00:47:41;;;;;;;12.60;8.47;;;13.20;67.80;;;-142.21;100.00;112049.66;5052935;28;20448;-77
2022/05/02 00:50:11;;;;;;;10.20;9.17;;;13.10;67.70;;;-142.21;100.00;112049.66;5053235;28;20925;-77
2022/05/02 00:52:38;;;;;;;9.80;8.80;;;13.00;68.20;;;-142.21;100.00;112049.66;5052731;28;20479;-76
2022/05/02 00:55:06;;;;;;;9.93;8.93;;;12.90;68.90;;;-142.21;100.00;112049.66;5053435;28;20538;-77
2022/05/02 00:57:34;;;;;;;11.67;9.10;;;12.80;69.20;;;-142.21;100.00;112049.66;5052584;28;20448;-76
2022/05/02 01:00:04;;;;;;;9.63;8.63;;;12.90;68.70;;;-142.21;100.00;112049.66;5052664;28;20812;-76
2022/05/02 01:02:32;;;;;;;10.87;9.50;;;13.00;68.30;;;-142.21;100.00;112049.66;5052647;28;20536;-77
2022/05/02 01:04:59;;;;;;;10.50;9.40;;;12.90;68.50;;;-142.21;100.00;112049.66;5052788;28;21043;-77
2022/05/02 01:07:26;;;;;;;10.37;8.67;;;12.90;69.40;;;-142.21;100.00;112049.66;5052946;28;20460;-77
2022/05/02 01:09:54;;;;;;;9.00;8.10;;;12.80;68.30;;;-142.21;100.00;112049.66;5052602;28;20448;-76
2022/05/02 01:12:25;;;;;;;9.60;8.60;;;12.70;68.00;;;-142.21;100.00;112049.66;5052914;28;20468;-75
2022/05/02 01:14:55;;;;;;;10.00;8.97;;;12.70;69.00;;;-142.21;100.00;112049.66;5052332;28;20429;-76
2022/05/02 01:17:23;;;;;;;10.83;8.10;;;12.70;68.40;;;-142.21;100.00;112049.66;5052743;28;21034;-76
2022/05/02 01:19:51;;;;;;;8.83;7.87;;;12.70;67.50;;;-142.21;100.00;112049.66;5052006;28;20551;-76
2022/05/02 01:22:20;;;;;;;10.67;9.00;;;12.60;68.20;;;-142.21;100.00;112049.66;5052773;28;20587;-76
2022/05/02 01:24:49;;;;;;;9.90;8.90;;;12.60;69.10;;;-142.21;100.00;112049.66;5052976;28;20448;-77
2022/05/02 01:27:17;;;;;;;9.13;8.20;;;12.60;67.80;;;-142.21;100.00;112049.66;5052387;28;20483;-76
2022/05/02 01:29:47;;;;;;;12.10;8.17;;;12.60;67.40;;;-142.21;100.00;112049.66;5052116;28;20989;-77
2022/05/02 01:32:16;;;;;;;11.03;8.90;;;12.50;68.50;;;-142.21;100.00;112049.66;5052358;28;20457;-76
2022/05/02 01:34:44;;;;;;;8.50;7.70;;;12.50;68.20;;;-142.21;100.00;112049.66;5052514;28;20937;-77
2022/05/02 01:37:14;;;;;;;9.60;8.47;;;12.60;67.80;;;-142.21;100.00;112049.66;5052358;28;20466;-76
2022/05/02 01:39:43;;;;;;;12.67;9.30;;;12.60;68.30;;;-142.21;100.00;112049.66;5052340;28;20449;-75
2022/05/02 01:42:13;;;;;;;10.47;8.93;;;12.50;68.20;;;-142.21;100.00;112049.66;5051882;28;20490;-77
2022/05/02 01:44:41;;;;;;;11.87;8.47;;;12.60;67.90;;;-142.21;100.00;112049.66;5052338;28;20471;-77
2022/05/02 01:47:09;;;;;;;9.20;8.27;;;12.60;67.50;;;-142.21;100.00;112049.66;5051912;28;20452;-77
2022/05/02 01:49:36;;;;;;;9.70;8.40;;;12.50;68.10;;;-142.21;100.00;112049.66;5042802;28;20540;-77
2022/05/02 01:52:05;;;;;;;9.27;8.27;;;12.40;67.90;;;-142.21;100.00;112049.66;5052413;28;20536;-76
2022/05/02 01:54:32;;;;;;;11.23;9.20;;;12.30;68.60;;;-142.21;100.00;112049.66;5047743;28;20508;-76
2022/05/02 01:57:00;;;;;;;9.77;8.73;;;12.20;68.40;;;-142.21;100.00;112049.66;5032982;28;20487;-75
2022/05/02 01:59:28;;;;;;;12.10;8.27;;;12.20;68.30;;;-142.21;100.00;112049.66;5050064;28;20456;-77
2022/05/02 02:01:55;;;;;;;9.73;8.63;;;12.20;68.00;;;-142.21;100.00;112049.66;5052582;28;20488;-76
2022/05/02 02:07:07;;;;;;;9.87;8.83;;;12.10;67.70;;;-142.21;100.00;112049.66;5052239;28;20501;-76
2022/05/02 02:09:34;;;;;;;8.57;7.67;;;12.10;68.80;;;-142.21;100.00;112049.66;5052174;28;20522;-75
2022/05/02 02:12:03;;;;;;;9.37;7.93;;;12.10;68.40;;;-142.21;100.00;112049.66;5051844;28;21010;-76
2022/05/02 02:14:30;;;;;;;9.37;8.27;;;12.00;68.00;;;-142.21;100.00;112049.66;5051391;28;20444;-77
2022/05/02 02:16:58;;;;;;;9.43;8.10;;;12.00;68.40;;;-142.21;100.00;112049.66;5032176;28;20441;-75
2022/05/02 02:19:25;;;;;;;9.73;8.13;;;12.10;68.30;;;-142.21;100.00;112049.66;5032324;28;20457;-77
2022/05/02 02:22:16;;;;;;;8.93;8.00;;;12.20;67.80;;;-142.21;100.00;112049.66;5039090;28;21075;-76
2022/05/02 02:24:40;;;;;;;9.97;8.23;;;12.10;68.90;;;-142.21;100.00;112049.66;5031501;28;20781;-77
2022/05/02 02:27:09;;;;;;;12.40;8.10;;;12.00;69.20;;;-142.21;100.00;112049.66;5032225;28;20457;-76
2022/05/02 02:29:36;;;;;;;9.97;7.77;;;12.10;69.20;;;-142.21;100.00;112049.66;5031923;28;20484;-76
2022/05/02 02:32:05;;;;;;;8.73;7.83;;;12.10;69.00;;;-142.21;100.00;112049.66;5032318;28;20472;-77
2022/05/02 02:34:33;;;;;;;8.47;7.53;;;12.10;68.10;;;-142.21;100.00;112049.66;5032387;28;20484;-76
2022/05/02 02:37:01;;;;;;;10.27;8.10;;;12.10;67.90;;;-142.21;100.00;112049.66;5044817;28;20452;-77
2022/05/02 02:39:28;;;;;;;8.67;7.37;;;12.00;67.50;;;-142.21;100.00;112049.66;5052159;28;20448;-75
2022/05/02 02:41:56;;;;;;;9.77;7.33;;;11.90;67.40;;;-142.21;100.00;112049.66;5050795;28;20587;-77
2022/05/02 02:44:24;;;;;;;8.10;7.23;;;11.80;67.20;;;-142.21;100.00;112049.66;5051860;28;20501;-76
2022/05/02 02:46:51;;;;;;;9.23;7.83;;;11.80;67.30;;;-142.21;100.00;112049.66;5051160;28;20454;-77
2022/05/02 02:49:18;;;;;;;9.50;7.53;;;11.80;67.40;;;-142.21;100.00;112049.66;5051856;28;20798;-77
2022/05/02 02:51:46;;;;;;;7.93;7.13;;;11.70;67.90;;;-142.21;100.00;112049.66;5053054;28;20531;-78
2022/05/02 02:54:13;;;;;;;9.13;8.23;;;11.70;68.30;;;-142.21;100.00;112049.66;5055583;28;20530;-76
2022/05/02 02:56:40;;;;;;;8.63;7.77;;;11.80;68.90;;;-142.21;100.00;112049.66;5055367;28;20448;-76
2022/05/02 02:59:07;;;;;;;8.67;7.70;;;11.70;67.90;;;-142.21;100.00;112049.66;5055033;28;20863;-76
2022/05/02 03:01:36;;;;;;;8.30;7.47;;;11.70;68.00;;;-142.21;100.00;112049.66;5055508;28;20842;-77
2022/05/02 03:06:46;;;;;;;9.10;7.57;;;11.60;68.70;;;-142.21;100.00;112049.66;5055473;28;20447;-76
2022/05/02 03:09:13;;;;;;;8.40;7.50;;;11.60;68.50;;;-142.21;100.00;112049.66;5054954;28;20893;-77
2022/05/02 03:11:41;;;;;;;9.07;7.73;;;11.60;68.60;;;-142.21;100.00;112049.66;5035039;28;20545;-77
2022/05/02 03:14:08;;;;;;;8.93;7.80;;;11.60;68.50;;;-142.21;100.00;112049.66;5035446;28;20456;-77
2022/05/02 03:16:36;;;;;;;8.93;7.57;;;11.60;67.90;;;-142.21;100.00;112049.66;5037164;28;20496;-76
2022/05/02 03:19:04;;;;;;;9.33;8.43;;;11.60;69.60;;;-142.21;100.00;112049.66;5055031;28;20484;-77
2022/05/02 03:21:31;;;;;;;9.70;7.43;;;11.60;68.00;;;-142.21;100.00;112049.66;5054912;28;20500;-76
2022/05/02 03:23:58;;;;;;;7.73;6.97;;;11.60;67.90;;;-142.21;100.00;112049.66;5054843;28;20950;-75
2022/05/02 03:26:25;;;;;;;9.10;8.20;;;11.50;69.10;;;-142.21;100.00;112049.66;5054071;28;20527;-75
2022/05/02 03:28:52;;;;;;;9.13;7.90;;;11.50;68.40;;;-142.21;100.00;112049.66;5054554;28;20482;-76
2022/05/02 03:31:19;;;;;;;8.70;7.77;;;11.50;68.30;;;-142.21;100.00;112049.66;5054796;28;20460;-77
2022/05/02 03:33:48;;;;;;;8.87;7.80;;;11.50;68.70;;;-142.21;100.00;112049.66;5054298;28;20448;-77
2022/05/02 03:36:18;;;;;;;11.33;8.37;;;11.50;68.60;;;-142.21;100.00;112049.66;5054888;28;20531;-77
2022/05/02 03:38:46;;;;;;;9.10;7.57;;;11.60;69.40;;;-142.21;100.00;112049.66;5054015;28;20524;-76
2022/05/02 03:41:13;;;;;;;8.50;7.63;;;11.60;68.50;;;-142.21;100.00;112049.66;5054544;28;20813;-75
2022/05/02 03:43:42;;;;;;;11.20;8.27;;;11.50;68.40;;;-142.21;100.00;112049.66;5054034;28;20523;-76
2022/05/02 03:46:10;;;;;;;11.87;8.97;;;11.50;68.20;;;-142.21;100.00;112049.66;5054410;28;20546;-75
2022/05/02 03:48:37;;;;;;;11.13;8.43;;;11.50;68.80;;;-142.21;100.00;112049.66;5053764;28;20955;-76
2022/05/02 03:51:07;;;;;;;10.40;8.50;;;11.60;68.30;;;-142.21;100.00;112049.66;5054532;28;20463;-76
2022/05/02 03:53:34;;;;;;;9.40;8.40;;;11.50;68.30;;;-142.21;100.00;112049.66;5054066;28;20488;-75
2022/05/02 03:56:01;;;;;;;11.80;8.73;;;11.50;69.10;;;-142.21;100.00;112049.66;5053758;28;20452;-76
2022/05/02 03:58:28;;;;;;;9.70;8.70;;;11.60;68.20;;;-142.21;100.00;112049.66;5054296;28;20527;-76
2022/05/02 04:00:55;;;;;;;11.97;9.57;;;11.60;68.80;;;-142.21;100.00;112049.66;5053417;28;20448;-77
2022/05/02 04:03:23;;;;;;;9.50;8.07;;;11.60;68.50;;;-142.21;100.00;112049.66;5054102;28;20536;-76
2022/05/02 04:05:50;;;;;;;11.27;9.23;;;11.50;70.10;;;-142.21;100.00;112049.66;5053594;28;20490;-76
2022/05/02 04:08:19;;;;;;;11.37;9.27;;;11.50;68.30;;;-142.21;100.00;112049.66;5054047;28;20539;-76
2022/05/02 04:10:46;;;;;;;11.77;10.33;;;11.50;68.80;;;-142.21;100.00;112049.66;5054298;28;20826;-77
2022/05/02 04:13:13;;;;;;;11.57;9.00;;;11.60;68.90;;;-142.21;100.00;112049.66;5053386;28;20444;-75
2022/05/02 04:15:40;;;;;;;11.90;9.77;;;11.50;68.70;;;-142.21;100.00;112049.66;5053429;28;20464;-77
2022/05/02 04:18:08;;;;;;;12.27;9.27;;;11.50;68.70;;;-142.21;100.00;112049.66;5053310;28;20456;-76
2022/05/02 04:20:35;;;;;;;11.00;9.00;;;11.60;68.80;;;-142.21;100.00;112049.66;5053977;28;20552;-76
2022/05/02 04:23:02;;;;;;;11.37;9.07;;;11.60;69.00;;;-142.21;100.00;112049.66;5053329;28;20886;-77
2022/05/02 04:25:31;;;;;;;9.53;8.53;;;11.60;69.00;;;-142.21;100.00;112049.66;5053856;28;20940;-78
2022/05/02 04:27:58;;;;;;;11.37;9.20;;;11.60;68.20;;;-142.21;100.00;112049.66;5053825;28;20449;-77
2022/05/02 04:30:25;;;;;;;9.23;8.30;;;11.70;68.30;;;-142.21;100.00;112049.66;5053042;28;20585;-75
2022/05/02 04:32:52;;;;;;;9.67;8.20;;;11.60;68.00;;;-142.21;100.00;112049.66;5053594;28;20808;-76
2022/05/02 04:35:20;;;;;;;8.30;7.43;;;11.60;68.50;;;-142.21;100.00;112049.66;5053030;28;20551;-79
2022/05/02 04:37:47;;;;;;;9.73;8.30;;;11.50;69.00;;;-142.21;100.00;112049.66;5052872;28;20456;-79
2022/05/02 04:40:14;;;;;;;8.97;8.00;;;11.40;68.40;;;-142.21;100.00;112049.66;5053049;28;20448;-78
2022/05/02 04:42:43;;;;;;;9.03;8.13;;;11.40;68.50;;;-142.21;100.00;112049.66;5052924;28;20579;-80
2022/05/02 04:45:11;;;;;;;8.63;7.73;;;11.50;68.70;;;-142.21;100.00;112049.66;5053382;28;20486;-79
2022/05/02 04:47:38;;;;;;;8.67;7.77;;;11.50;69.20;;;-142.21;100.00;112049.66;5052765;28;20479;-78
2022/05/02 04:50:07;;;;;;;8.03;7.23;;;11.50;69.20;;;-142.21;100.00;112049.66;5053366;28;20866;-79
2022/05/02 04:52:34;;;;;;;8.53;7.63;;;11.60;69.10;;;-142.21;100.00;112049.66;5052287;28;20444;-77
2022/05/02 04:55:01;;;;;;;9.07;8.17;;;11.70;69.60;;;-142.21;100.00;112049.66;5053489;28;20480;-77
2022/05/02 04:57:29;;;;;;;8.77;7.87;;;11.70;68.50;;;-142.21;100.00;112049.66;5052893;28;20454;-77
2022/05/02 04:59:59;;;;;;;11.77;8.33;;;11.70;68.70;;;-142.21;100.00;112049.66;5053063;28;20556;-78
2022/05/02 05:02:26;;;;;;;8.60;7.80;;;11.80;68.80;;;-142.21;100.00;112049.66;5052992;28;20472;-76
2022/05/02 05:04:54;;;;;;;10.60;7.93;;;11.80;69.00;;;-142.21;100.00;112049.66;5052338;28;21014;-77
2022/05/02 05:07:21;;;;;;;8.93;8.03;;;11.80;70.20;;;-142.21;100.00;112049.66;5052710;28;20452;-76
2022/05/02 05:09:48;;;;;;;9.23;8.33;;;11.90;69.40;;;-142.21;100.00;112049.66;5052548;28;20816;-75
2022/05/02 05:12:33;;;;;;;8.87;7.97;;;11.90;69.40;;;-142.21;100.00;112049.66;5052514;28;20440;-76
2022/05/02 05:18:35;;;;;;;17.47;10.57;;;12.00;70.10;;;-142.21;100.00;112049.66;5016947;28;20535;-76
2022/05/02 05:21:09;;;;;;;14.30;11.30;;;12.20;71.10;;;-142.21;100.00;112049.66;5051953;28;20555;-76
2022/05/02 05:24:05;;;;;;;13.27;11.63;;;12.30;71.00;;;-142.21;100.00;112049.66;5053235;28;20471;-76
2022/05/02 05:26:47;;;;;;;28.23;14.47;;;12.40;70.50;;;-142.21;100.00;112049.66;5046423;28;20511;-76
2022/05/02 05:29:36;;;;;;;15.57;12.90;;;12.50;71.60;;;-142.21;100.00;112049.66;5051717;28;20472;-76
2022/05/02 05:32:27;;;;;;;14.40;12.13;;;12.60;70.80;;;-142.21;100.00;112049.66;5052031;28;20436;-75
2022/05/02 05:35:05;;;;;;;14.83;12.30;;;12.60;70.70;;;-142.21;100.00;112049.66;5052959;28;20493;-76
2022/05/02 05:38:02;;;;;;;14.97;12.37;;;12.70;70.50;;;-142.21;100.00;112049.66;5043409;28;20472;-77
2022/05/02 05:40:38;;;;;;;14.20;11.47;;;12.80;70.70;;;-142.21;100.00;112049.66;5033304;28;20429;-76
2022/05/02 05:43:42;;;;;;;10.87;9.77;;;12.90;70.30;;;-142.21;100.00;112049.66;5050235;28;20816;-76
2022/05/02 05:46:48;;;;;;;9.80;8.77;;;13.10;69.70;;;-142.21;100.00;112049.66;5051807;28;20523;-76
2022/05/02 05:49:36;;;;;;;10.67;9.33;;;13.20;69.00;;;-142.21;100.00;112049.66;5050938;28;20992;-76
2022/05/02 05:52:16;;;;;;;12.47;10.03;;;13.40;69.80;;;-142.21;100.00;112049.66;5044822;28;20851;-76
2022/05/02 05:55:03;;;;;;;13.13;11.13;;;13.30;69.20;;;-142.21;100.00;112049.66;5052012;28;20443;-76
2022/05/02 05:57:40;;;;;;;12.10;10.63;;;13.30;69.60;;;-142.21;100.00;112049.66;5047623;28;20483;-77
2022/05/02 06:00:11;;;;;;;14.00;11.93;;;13.40;70.80;;;-142.21;100.00;112049.66;5041549;28;20531;-76
2022/05/02 06:02:56;;;;;;;14.50;11.97;;;13.50;72.60;;;-142.21;100.00;112049.66;5051352;28;20503;-75
2022/05/02 06:05:25;;;;;;;14.47;12.80;;;13.60;71.90;;;-142.21;100.00;112049.66;5051767;28;20447;-75
2022/05/02 06:07:54;;;;;;;15.67;12.33;;;13.70;72.00;;;-142.21;100.00;112049.66;5052449;28;20475;-76
2022/05/02 06:10:25;;;;;;;13.97;12.50;;;13.70;72.70;;;-142.21;100.00;112049.66;5051765;28;20963;-77
2022/05/02 06:12:57;;;;;;;17.20;12.90;;;13.70;72.30;;;-142.21;100.00;112049.66;5051874;28;20429;-77
2022/05/02 06:18:28;;;;;;;14.53;12.77;;;13.90;72.50;;;-142.21;100.00;112049.66;5032320;28;20420;-77
2022/05/02 06:21:01;;;;;;;16.03;13.30;;;14.10;72.90;;;-142.21;100.00;112049.66;5033649;28;20464;-77
2022/05/02 06:23:32;;;;;;;15.07;13.10;;;14.20;72.50;;;-142.21;100.00;112049.66;5066272;28;20848;-77
2022/05/02 06:25:59;;;;;;;14.67;12.20;;;14.30;72.60;;;-142.21;100.00;112049.66;5046783;28;20460;-77
2022/05/02 06:28:31;;;;;;;15.03;13.20;;;14.50;72.20;;;-142.21;100.00;112049.66;5056222;28;20756;-76
2022/05/02 06:31:02;;;;;;;15.17;13.57;;;14.50;72.60;;;-142.21;100.00;112049.66;5055605;28;20479;-76
2022/05/02 06:33:31;;;;;;;16.53;13.43;;;14.60;73.00;;;-142.21;100.00;112049.66;5055948;28;20515;-76
2022/05/02 06:36:37;;;;;;;14.07;12.13;;;14.60;72.40;;;-142.21;100.00;112049.66;5055456;28;20448;-76
2022/05/02 06:39:11;;;;;;;14.63;12.73;;;14.70;73.10;;;-142.21;100.00;112049.66;5023388;28;20506;-76
2022/05/02 06:42:09;;;;;;;15.60;13.23;;;14.70;73.00;;;-142.21;100.00;112049.66;5052524;28;20436;-76
2022/05/02 06:44:49;;;;;;;14.57;12.10;;;14.70;73.60;;;-142.21;100.00;112049.66;5055783;28;20435;-77
2022/05/02 06:47:28;;;;;;;11.97;10.67;;;16.60;71.70;;;-142.21;100.00;112049.66;5054930;28;20515;-75
2022/05/02 06:50:02;;;;;;;10.33;9.33;;;19.50;60.20;;;-142.21;100.00;112049.66;5040170;28;20849;-75
2022/05/02 06:52:34;;;;;;;11.23;9.20;;;22.00;55.30;;;-142.21;100.00;112049.66;5046555;28;20526;-76
2022/05/02 06:55:25;;;;;;;10.43;9.30;;;23.50;51.00;;;-142.21;100.00;112049.66;5040193;28;20622;-77
2022/05/02 06:58:17;;;;;;;11.00;9.13;;;24.30;50.10;;;-142.21;100.00;112049.66;5016976;28;20512;-76
2022/05/02 07:00:56;;;;;;;10.13;8.67;;;25.30;48.60;;;-142.21;100.00;112049.66;5035713;28;20195;-78
2022/05/02 07:03:59;;;;;;;9.57;8.57;;;25.50;47.70;;;-142.21;100.00;112049.66;5034197;28;20233;-74
2022/05/02 07:06:44;;;;;;;10.33;9.33;;;23.50;49.40;;;-142.21;100.00;112049.66;5044069;28;20208;-75
2022/05/02 07:09:22;;;;;;;11.47;9.30;;;23.00;51.80;;;-142.21;100.00;112049.66;5055029;28;20202;-77
2022/05/02 07:12:17;;;;;;;10.90;9.77;;;22.90;51.50;;;-142.21;100.00;112049.66;5055398;28;20285;-75
2022/05/02 07:15:03;;;;;;;9.87;8.87;;;22.60;51.60;;;-142.21;100.00;112049.66;5054506;28;20226;-75
2022/05/02 07:17:49;;;;;;;11.07;9.97;;;21.60;53.80;;;-142.21;100.00;112049.66;5054444;28;20281;-77
2022/05/02 07:20:23;;;;;;;10.43;9.43;;;20.50;55.30;;;-142.21;100.00;112049.66;5055455;28;20205;-77
2022/05/02 07:23:23;;;;;;;12.97;10.77;;;19.90;57.10;;;-142.21;100.00;112049.66;5054504;28;20468;-74
2022/05/02 07:26:03;;;;;;;11.23;10.20;;;19.60;58.20;;;-142.21;100.00;112049.66;5034773;28;20934;-76
2022/05/02 07:28:42;;;;;;;11.30;10.07;;;19.40;58.90;;;-142.21;100.00;112049.66;5035001;28;20526;-78
2022/05/02 07:31:10;;;;;;;12.27;10.27;;;19.50;59.20;;;-142.21;100.00;112049.66;5016898;28;20531;-77
2022/05/02 07:33:40;;;;;;;12.60;10.87;;;19.30;59.40;;;-142.21;100.00;112049.66;5035148;28;20468;-77
2022/05/02 07:36:09;;;;;;;11.13;10.03;;;19.00;60.50;;;-142.21;100.00;112049.66;5035031;28;20450;-76
2022/05/02 07:38:37;;;;;;;11.70;10.50;;;18.70;62.20;;;-142.21;100.00;112049.66;5034139;28;20499;-78
2022/05/02 07:41:26;;;;;;;11.83;10.00;;;18.20;61.60;;;-142.21;100.00;112049.66;5051639;28;20475;-75
2022/05/02 07:44:01;;;;;;;11.20;10.00;;;18.10;63.70;;;-142.21;100.00;112049.66;5054465;28;20479;-75
2022/05/02 07:46:37;;;;;;;11.47;10.37;;;18.10;64.50;;;-142.21;100.00;112049.66;5054606;28;20464;-75
2022/05/02 07:49:07;;;;;;;11.30;10.20;;;17.90;63.60;;;-142.21;100.00;112049.66;5039911;28;20463;-75
2022/05/02 07:51:42;;;;;;;13.17;10.80;;;17.80;64.20;;;-142.21;100.00;112049.66;5034309;28;20544;-75
2022/05/02 07:54:17;;;;;;;11.60;10.40;;;17.80;65.10;;;-142.21;100.00;112049.66;5033788;28;20428;-75
2022/05/02 07:56:49;;;;;;;11.33;10.13;;;17.80;65.70;;;-142.21;100.00;112049.66;5052814;28;20440;-75
2022/05/02 07:59:19;;;;;;;12.07;10.77;;;17.70;65.10;;;-142.21;100.00;112049.66;5051685;28;20433;-75
2022/05/02 08:01:47;;;;;;;12.53;10.83;;;17.70;66.30;;;-142.21;100.00;112049.66;5046940;28;21219;-75
2022/05/02 08:04:16;;;;;;;12.50;11.23;;;17.70;66.40;;;-142.21;100.00;112049.66;5049281;28;20485;-74
2022/05/02 08:07:11;;;;;;;12.00;10.60;;;17.70;66.40;;;-142.21;100.00;112049.66;5040863;28;20526;-76
2022/05/02 08:10:29;;;;;;;12.00;10.80;;;17.70;66.80;;;-142.21;100.00;112049.66;5053820;28;20502;-78
2022/05/02 08:13:04;;;;;;;10.73;9.53;;;17.70;66.30;;;-142.21;100.00;112049.66;5050889;28;20473;-75
2022/05/02 08:15:44;;;;;;;11.53;10.33;;;17.60;65.40;;;-142.21;100.00;112049.66;5049077;28;20523;-78
2022/05/02 08:18:47;;;;;;;12.70;10.77;;;17.50;66.40;;;-142.21;100.00;112049.66;5047533;28;20437;-77
2022/05/02 08:21:21;;;;;;;11.00;10.00;;;17.50;66.60;;;-142.21;100.00;112049.66;5019198;28;20444;-75
2022/05/02 08:27:40;;;;;;;10.50;9.17;;;17.70;67.50;;;-142.21;100.00;112049.66;5036228;28;20432;-77
2022/05/02 08:30:16;;;;;;;11.20;9.93;;;17.70;66.10;;;-142.21;100.00;112049.66;5051422;28;20568;-77
2022/05/02 08:32:56;;;;;;;13.63;10.13;;;17.80;66.90;;;-142.21;100.00;112049.66;5053890;28;20421;-79
2022/05/02 08:35:57;;;;;;;10.87;9.77;;;17.90;65.70;;;-142.21;100.00;112049.66;5053142;28;20439;-76
2022/05/02 08:38:52;;;;;;;11.10;9.80;;;18.00;65.30;;;-142.21;100.00;112049.66;5043909;28;20451;-77
2022/05/02 08:42:22;;;;;;;10.27;9.13;;;18.10;65.20;;;-142.21;100.00;112049.66;5053430;28;20543;-76
2022/05/02 08:45:35;;;;;;;10.50;9.50;;;18.30;63.60;;;-142.21;100.00;112049.66;5010700;28;20879;-77
2022/05/02 08:49:32;;;;;;;11.27;9.30;;;18.50;63.20;;;-142.21;100.00;112049.66;5053380;28;20428;-76
2022/05/02 08:52:47;;;;;;;10.00;8.80;;;18.70;61.50;;;-142.21;100.00;112049.66;5052427;28;20460;-75
2022/05/02 08:55:49;;;;;;;11.47;8.43;;;19.20;63.00;;;-142.21;100.00;112049.66;5011252;28;20442;-77
2022/05/02 08:58:55;;;;;;;9.40;8.40;;;19.50;61.90;;;-142.21;100.00;112049.66;5051027;28;20505;-76
2022/05/02 09:02:12;;;;;;;9.27;8.37;;;19.90;61.00;;;-142.21;97.45;112049.66;5052995;28;20443;-76
2022/05/02 09:05:21;;;;;;;9.53;8.50;;;20.10;58.60;;;-142.21;95.46;112049.66;5052472;28;20555;-77
2022/05/02 09:08:38;;;;;;;9.87;8.17;;;20.50;57.80;;;-142.21;93.33;112049.66;5052365;28;20455;-76
2022/05/02 09:11:35;;;;;;;14.13;9.73;;;21.00;57.10;;;-142.21;93.12;112049.66;5053147;28;20758;-78
2022/05/02 09:15:06;;;;;;;8.57;7.77;;;21.90;56.40;;;-142.21;93.23;112049.66;5051818;28;20433;-77
2022/05/02 09:18:43;;;;;;;8.73;7.57;;;22.20;55.70;;;-142.21;90.14;112049.66;5009340;28;20207;-78
2022/05/02 09:21:28;;;;;;;8.23;7.43;;;22.30;54.40;;;-142.21;89.75;112049.66;5052429;28;20279;-77
2022/05/02 09:24:45;;;;;;;9.33;8.17;;;22.20;54.70;;;-142.21;87.19;112049.66;5051924;28;20229;-76
2022/05/02 09:27:36;;;;;;;9.80;8.63;;;22.10;54.20;;;-142.21;88.30;112049.66;5050169;28;20285;-76
2022/05/02 09:30:51;;;;;;;8.70;7.90;;;22.00;55.00;;;-142.21;91.86;112049.66;5051926;28;20233;-76
2022/05/02 09:33:44;;;;;;;8.93;8.07;;;21.90;56.10;;;-142.21;88.39;112049.66;5052653;28;20296;-78
2022/05/02 09:36:26;;;;;;;8.27;7.40;;;21.90;55.30;;;-142.21;87.93;112049.66;5052221;28;20285;-75
2022/05/02 09:39:08;;;;;;;8.80;7.90;;;21.80;56.00;;;-142.21;87.26;112049.66;5052453;28;20635;-76
2022/05/02 09:42:19;;;;;;;8.97;8.17;;;21.80;55.80;;;-142.21;85.81;112049.66;5051043;28;20276;-77
2022/05/02 09:52:05;;;;;;;10.07;8.83;;;22.10;55.80;;;-142.21;82.00;112049.66;4993537;28;20187;-76
2022/05/02 09:58:19;;;;;;;9.37;7.93;;;22.30;55.00;;;-142.21;80.66;112049.66;5032211;28;20190;-76
2022/05/02 10:01:11;;;;;;;8.97;8.07;;;22.40;54.60;;;-142.21;83.76;112049.66;5033404;28;20277;-76
2022/05/02 10:04:00;;;;;;;8.53;7.63;;;22.60;55.50;;;-142.21;82.08;112049.66;5036221;28;20233;-77
2022/05/02 10:06:32;;;;;;;8.60;7.80;;;22.60;55.00;;;-142.21;80.42;112049.66;5036098;28;20241;-77
2022/05/02 10:09:05;;;;;;;9.60;8.67;;;22.70;54.60;;;-142.21;74.65;112049.66;5036752;28;20226;-77
2022/05/02 10:12:08;;;;;;;9.30;8.00;;;22.60;53.50;;;-142.21;76.47;112049.66;5035415;28;20204;-76
2022/05/02 10:15:00;;;;;;;9.93;8.93;;;22.70;53.90;;;-142.21;75.10;112049.66;5028911;28;20305;-77
2022/05/02 10:18:12;;;;;;;8.80;7.33;;;22.80;54.00;;;-142.21;76.51;112049.66;5035419;28;20214;-77
2022/05/02 10:21:03;;;;;;;8.33;7.47;;;22.90;53.50;;;-142.21;69.18;112049.66;5035527;28;20212;-76
2022/05/02 10:24:19;;;;;;;8.97;8.10;;;23.00;52.70;;;-142.21;75.08;112049.66;5036024;28;20234;-76
2022/05/02 10:26:56;;;;;;;7.90;7.20;;;23.10;54.00;;;-142.21;74.39;112049.66;5055821;28;20200;-77
2022/05/02 10:29:48;;;;;;;8.73;7.83;;;23.30;54.20;;;-142.21;70.59;112049.66;5055143;28;20273;-77
2022/05/02 10:32:35;;;;;;;9.90;8.40;;;23.40;52.70;;;-142.21;66.88;112049.66;5056013;28;20216;-76
2022/05/02 10:35:04;;;;;;;10.63;8.13;;;23.50;51.70;;;-142.21;67.87;112049.66;5056132;28;20576;-77
2022/05/02 10:37:35;;;;;;;8.10;7.23;;;23.60;51.80;;;-142.21;64.40;112049.66;5055537;28;20205;-75
2022/05/02 10:40:08;;;;;;;11.17;7.67;;;23.50;51.40;;;-142.21;64.14;112049.66;5055216;28;20233;-76
2022/05/02 10:42:36;;;;;;;8.43;7.63;;;23.60;51.80;;;-142.21;63.56;112049.66;5055392;28;20276;-76
2022/05/02 10:45:08;;;;;;;8.37;7.50;;;23.80;51.70;;;-142.21;60.22;112049.66;5055758;28;20271;-77
2022/05/02 10:47:44;;;;;;;8.53;7.67;;;23.90;51.00;;;-142.21;64.22;112049.66;5055252;28;20252;-77
2022/05/02 10:50:19;;;;;;;8.43;7.50;;;23.80;51.30;;;-142.21;61.55;112049.66;5055749;28;20252;-76
2022/05/02 10:53:09;;;;;;;9.13;8.20;;;23.70;50.80;;;-142.21;60.58;112049.66;5036244;28;20251;-76
2022/05/02 10:55:45;;;;;;;8.10;7.30;;;23.80;50.50;;;-142.21;63.55;112049.66;5055347;28;20190;-77